Terminal Aerodrome Forecast
Issued by NWS

Home | Current Version | Previous Version | Graphics & Text | Print | Product List | Glossary On
Versions: 1 2 3 4 5 6 7 8 9 10 11 12 13 14 15 16 17 18 19 20 21 22 23 24 25 26 27 28 29 30 31 32
000
FTUS43 KGRB 211140
TAFRHI
TAF
KRHI 211140Z 2112/2212 22008G16KT P6SM SCT009 OVC018
      TEMPO 2112/2114 31025G40KT 1SM TSRA BR BKN009CB
     FM211400 22008KT P6SM OVC015
     FM211600 22008KT P6SM OVC025
     FM211800 24010KT P6SM BKN035
     FM212100 25008KT P6SM SCT040
     FM220600 29004KT 3SM BR SCT040
     FM220800 VRB03KT 2SM BR SCT030=

USA.gov is the U.S. government's official web portal to all federal, state and local government web resources and services.